createdAt,value
2023-01-18T00:00:17.968Z,97331.81
2023-01-18T00:02:46.889Z,97324.91
2023-01-18T00:05:16.083Z,97329.56
2023-01-18T00:07:43.720Z,97331.78
2023-01-18T00:10:11.714Z,97327.13
2023-01-18T00:12:39.341Z,97314.97
2023-01-18T00:15:08.217Z,97325.28
2023-01-18T00:17:47.430Z,97321.63
2023-01-18T00:20:16.401Z,97325.06
2023-01-18T00:22:45.259Z,97319.19
2023-01-18T00:25:13.342Z,97320.84
2023-01-18T00:27:41.814Z,97323.91
2023-01-18T00:30:10.979Z,97317.38
2023-01-18T00:32:38.712Z,97324.28
2023-01-18T00:35:08.115Z,97325.91
2023-01-18T00:37:37.718Z,97319.97
2023-01-18T00:40:07.423Z,97317.34
2023-01-18T00:42:53.065Z,97325.06
2023-01-18T00:45:20.667Z,97313.91
2023-01-18T00:47:48.316Z,97319.81
2023-01-18T00:50:16.346Z,97326.94
2023-01-18T00:52:46.363Z,97321.22
2023-01-18T00:55:14.907Z,97325.09
2023-01-18T00:57:43.777Z,97315.94
2023-01-18T01:00:15.190Z,97320.03
2023-01-18T01:02:43.087Z,97321.22
2023-01-18T01:05:35.409Z,97324.91
2023-01-18T01:08:05.790Z,97324.69
2023-01-18T01:10:33.507Z,97324.69
2023-01-18T01:13:20.589Z,97331.59
2023-01-18T01:16:06.006Z,97323.91
2023-01-18T01:18:51.126Z,97336.69
2023-01-18T01:21:36.121Z,97332.22
2023-01-18T01:24:22.937Z,97339.50
2023-01-18T01:26:50.516Z,97342.78
2023-01-18T01:29:18.365Z,97340.13
2023-01-18T01:31:46.545Z,97344.78
2023-01-18T01:34:14.472Z,97340.13
2023-01-18T01:36:42.439Z,97346.84
2023-01-18T01:39:11.815Z,97350.69
2023-01-18T01:41:39.682Z,97357.41
2023-01-18T01:44:40.876Z,97363.88
2023-01-18T01:47:14.267Z,97363.47
2023-01-18T01:49:45.014Z,97366.50
2023-01-18T01:52:16.228Z,97367.34
2023-01-18T01:54:49.667Z,97363.47
2023-01-18T01:57:22.215Z,97377.88
2023-01-18T01:59:54.612Z,97376.47
2023-01-18T02:02:22.908Z,97374.84
2023-01-18T02:04:53.607Z,97382.38
2023-01-18T02:07:22.156Z,97380.75
2023-01-18T02:09:52.678Z,97376.66
2023-01-18T02:12:20.868Z,97390.91
2023-01-18T02:14:48.646Z,97382.94
2023-01-18T02:17:31.875Z,97396.97
2023-01-18T02:20:24.100Z,97402.03
2023-01-18T02:23:24.252Z,97399.44
2023-01-18T02:26:17.684Z,97403.91
2023-01-18T02:28:55.172Z,97412.41
2023-01-18T02:31:28.753Z,97415.69
2023-01-18T02:34:05.019Z,97417.09
2023-01-18T02:36:39.551Z,97415.28
2023-01-18T02:39:23.089Z,97419.31
2023-01-18T02:42:17.456Z,97419.50
2023-01-18T02:45:05.754Z,97428.06
2023-01-18T02:47:34.871Z,97427.06
2023-01-18T02:50:04.085Z,97428.69
2023-01-18T02:52:42.964Z,97426.44
2023-01-18T02:55:18.786Z,97437.00
2023-01-18T02:57:46.827Z,97432.91
2023-01-18T03:00:19.041Z,97440.63
2023-01-18T03:02:47.880Z,97442.44
2023-01-18T03:05:15.687Z,97436.75
2023-01-18T03:07:51.706Z,97440.22
2023-01-18T03:10:19.461Z,97435.56
2023-01-18T03:12:55.448Z,97435.56
2023-01-18T03:15:31.459Z,97444.09
2023-01-18T03:18:06.806Z,97448.97
2023-01-18T03:20:41.715Z,97450.78
2023-01-18T03:23:33.225Z,97452.81
2023-01-18T03:26:03.030Z,97447.91
2023-01-18T03:28:52.311Z,97448.97
2023-01-18T03:31:45.642Z,97461.13
2023-01-18T03:34:23.198Z,97456.47
2023-01-18T03:36:53.899Z,97468.00
2023-01-18T03:39:28.326Z,97470.06
2023-01-18T03:41:59.629Z,97481.44
2023-01-18T03:44:33.652Z,97473.53
2023-01-18T03:47:03.176Z,97472.47
2023-01-18T03:49:31.744Z,97476.97
2023-01-18T03:52:15.661Z,97489.78
2023-01-18T03:54:51.671Z,97486.91
2023-01-18T03:57:27.380Z,97489.19
2023-01-18T03:59:55.118Z,97491.38
2023-01-18T04:02:25.000Z,97504.19
2023-01-18T04:04:57.407Z,97500.75
2023-01-18T04:07:26.525Z,97512.31
2023-01-18T04:09:54.068Z,97507.84
2023-01-18T04:12:21.633Z,97515.13
2023-01-18T04:14:49.161Z,97514.72
2023-01-18T04:17:17.150Z,97518.41
2023-01-18T04:19:46.180Z,97520.84
2023-01-18T04:22:13.869Z,97524.94
2023-01-18T04:24:41.413Z,97533.44
2023-01-18T04:27:09.280Z,97527.97
2023-01-18T04:29:36.848Z,97528.97
2023-01-18T04:32:05.460Z,97529.41
2023-01-18T04:34:33.299Z,97537.75
2023-01-18T04:37:02.271Z,97539.94
2023-01-18T04:39:30.061Z,97547.66
2023-01-18T04:41:57.653Z,97542.56
2023-01-18T04:44:25.241Z,97543.38
2023-01-18T04:46:52.878Z,97545.44
2023-01-18T04:49:20.695Z,97546.22
2023-01-18T04:51:48.415Z,97550.91
2023-01-18T04:54:19.324Z,97548.88
2023-01-18T04:56:47.218Z,97549.69
2023-01-18T04:59:16.745Z,97550.53
2023-01-18T05:01:44.589Z,97549.88
2023-01-18T05:04:12.156Z,97562.88
2023-01-18T05:06:39.784Z,97567.94
2023-01-18T05:09:08.023Z,97562.03
2023-01-18T05:11:36.903Z,97578.13
2023-01-18T05:14:04.472Z,97585.44
2023-01-18T05:16:32.390Z,97582.94
2023-01-18T05:18:59.971Z,97591.88
2023-01-18T05:21:28.554Z,97592.09
2023-01-18T05:23:56.061Z,97591.13
2023-01-18T05:26:25.175Z,97602.41
2023-01-18T05:28:58.034Z,97605.44
2023-01-18T05:31:26.260Z,97604.06
2023-01-18T05:33:53.885Z,97604.72
2023-01-18T05:36:21.449Z,97614.25
2023-01-18T05:38:49.138Z,97620.81
2023-01-18T05:41:16.680Z,97626.66
2023-01-18T05:43:44.271Z,97616.28
2023-01-18T05:46:13.245Z,97619.59
2023-01-18T05:48:40.937Z,97617.16
2023-01-18T05:51:09.916Z,97624.66
2023-01-18T05:53:38.296Z,97626.09
2023-01-18T05:56:07.450Z,97637.06
2023-01-18T05:58:35.655Z,97646.56
2023-01-18T06:01:03.249Z,97642.69
2023-01-18T06:03:32.193Z,97640.28
2023-01-18T06:05:59.805Z,97645.41
2023-01-18T06:08:27.449Z,97655.50
2023-01-18T06:10:58.971Z,97664.69
2023-01-18T06:13:29.063Z,97665.50
2023-01-18T06:15:57.018Z,97676.81
2023-01-18T06:18:25.884Z,97676.84
2023-01-18T06:20:58.564Z,97682.72
2023-01-18T06:23:27.983Z,97677.28
2023-01-18T06:25:57.165Z,97677.25
2023-01-18T06:28:24.916Z,97678.09
2023-01-18T06:30:54.009Z,97679.91
2023-01-18T06:33:21.831Z,97687.81
2023-01-18T06:35:49.427Z,97693.94
2023-01-18T06:38:18.344Z,97693.50
2023-01-18T06:40:45.920Z,97698.59
2023-01-18T06:43:14.534Z,97695.97
2023-01-18T06:45:42.325Z,97702.81
2023-01-18T06:48:10.109Z,97700.78
2023-01-18T06:50:37.740Z,97712.34
2023-01-18T06:53:05.508Z,97714.56
2023-01-18T06:55:34.605Z,97717.22
2023-01-18T06:58:02.663Z,97724.59
2023-01-18T07:00:30.623Z,97726.59
2023-01-18T07:02:58.815Z,97732.03
2023-01-18T07:05:26.889Z,97735.28
2023-01-18T07:07:54.494Z,97745.25
2023-01-18T07:10:22.133Z,97753.16
2023-01-18T07:12:51.399Z,97760.28
2023-01-18T07:15:23.010Z,97759.47
2023-01-18T07:17:51.160Z,97760.28
2023-01-18T07:20:20.525Z,97759.53
2023-01-18T07:22:51.913Z,97780.06
2023-01-18T07:25:20.581Z,97785.78
2023-01-18T07:27:49.885Z,97783.28
2023-01-18T07:30:19.678Z,97795.53
2023-01-18T07:32:49.673Z,97798.53
2023-01-18T07:35:18.478Z,97800.00
2023-01-18T07:37:50.124Z,97801.19
2023-01-18T07:40:18.547Z,97805.28
2023-01-18T07:42:46.588Z,97806.50
2023-01-18T07:45:15.201Z,97813.00
2023-01-18T07:47:46.101Z,97817.75
2023-01-18T07:50:14.272Z,97817.56
2023-01-18T07:52:41.873Z,97826.09
2023-01-18T07:55:10.213Z,97825.91
2023-01-18T07:57:38.002Z,97830.63
2023-01-18T08:00:07.742Z,97833.25
2023-01-18T08:02:35.337Z,97839.69
2023-01-18T08:05:04.918Z,97839.63
2023-01-18T08:07:33.055Z,97844.19
2023-01-18T08:10:00.627Z,97858.47
2023-01-18T08:12:28.638Z,97860.31
2023-01-18T08:14:56.195Z,97862.38
2023-01-18T08:17:23.974Z,97871.53
2023-01-18T08:19:53.991Z,97871.53
2023-01-18T08:22:22.918Z,97876.41
2023-01-18T08:24:50.493Z,97871.53
2023-01-18T08:27:18.062Z,97881.03
2023-01-18T08:29:46.797Z,97876.38
2023-01-18T08:32:14.493Z,97879.41
2023-01-18T08:34:42.541Z,97876.75
2023-01-18T08:37:11.741Z,97893.22
2023-01-18T08:39:40.673Z,97894.28
2023-01-18T08:42:08.685Z,97900.34
2023-01-18T08:44:36.209Z,97900.22
2023-01-18T08:47:04.191Z,97905.97
2023-01-18T08:49:32.623Z,97906.34
2023-01-18T08:52:00.188Z,97913.06
2023-01-18T08:54:27.763Z,97919.31
2023-01-18T08:56:56.632Z,97922.34
2023-01-18T08:59:24.693Z,97932.19
2023-01-18T09:01:52.467Z,97932.44
2023-01-18T09:04:21.054Z,97936.38
2023-01-18T09:06:53.436Z,97943.97
2023-01-18T09:09:21.015Z,97937.72
2023-01-18T09:11:51.770Z,97948.25
2023-01-18T09:14:20.817Z,97953.44
2023-01-18T09:16:48.492Z,97969.91
2023-01-18T09:19:16.275Z,97976.56
2023-01-18T09:21:45.781Z,97967.53
2023-01-18T09:24:13.982Z,97973.44
2023-01-18T09:26:43.323Z,97967.09
2023-01-18T09:29:12.026Z,97976.91
2023-01-18T09:31:40.949Z,97988.84
2023-01-18T09:34:18.856Z,97986.19
2023-01-18T09:36:50.313Z,97991.19
2023-01-18T09:39:18.297Z,97996.03
2023-01-18T09:41:52.408Z,97997.53
2023-01-18T09:44:25.594Z,97996.81
2023-01-18T09:46:58.665Z,98012.38
2023-01-18T09:49:35.844Z,98023.34
2023-01-18T09:52:19.371Z,98014.53
2023-01-18T09:54:57.329Z,98013.88
2023-01-18T09:57:40.614Z,98018.00
2023-01-18T10:00:19.395Z,98019.25
2023-01-18T10:02:51.753Z,98022.66
2023-01-18T10:05:22.733Z,98021.72
2023-01-18T10:08:02.775Z,98031.47
2023-01-18T10:10:35.808Z,98028.06
2023-01-18T10:13:23.985Z,98018.41
2023-01-18T10:15:51.801Z,98030.22
2023-01-18T10:18:20.989Z,98027.97
2023-01-18T10:20:52.760Z,98040.88
2023-01-18T10:23:26.300Z,98043.56
2023-01-18T10:25:56.003Z,98038.84
2023-01-18T10:28:39.524Z,98050.91
2023-01-18T10:31:22.557Z,98038.91
2023-01-18T10:33:54.167Z,98050.38
2023-01-18T10:36:26.181Z,98046.91
2023-01-18T10:38:55.680Z,98059.78
2023-01-18T10:41:27.720Z,98057.97
2023-01-18T10:43:55.596Z,98053.47
2023-01-18T10:46:23.439Z,98052.91
2023-01-18T10:48:54.932Z,98057.59
2023-01-18T10:51:30.588Z,98059.00
2023-01-18T10:53:58.715Z,98071.44
2023-01-18T10:56:29.190Z,98065.94
2023-01-18T10:58:59.952Z,98062.06
2023-01-18T11:01:29.256Z,98054.94
2023-01-18T11:04:05.698Z,98056.56
2023-01-18T11:06:46.117Z,98062.88
2023-01-18T11:09:40.381Z,98061.44
2023-01-18T11:12:34.634Z,98071.84
2023-01-18T11:15:27.461Z,98061.63
2023-01-18T11:18:06.089Z,98067.97
2023-01-18T11:20:39.767Z,98066.53
2023-01-18T11:23:17.433Z,98071.81
2023-01-18T11:25:55.409Z,98070.19
2023-01-18T11:28:26.259Z,98071.59
2023-01-18T11:30:56.827Z,98067.31
2023-01-18T11:33:26.791Z,98062.81
2023-01-18T11:36:01.156Z,98065.31
2023-01-18T11:38:31.696Z,98057.78
2023-01-18T11:41:04.681Z,98057.75
2023-01-18T11:43:34.523Z,98059.81
2023-01-18T11:46:13.338Z,98060.81
2023-01-18T11:48:50.432Z,98054.03
2023-01-18T11:51:27.231Z,98057.97
2023-01-18T11:54:03.599Z,98059.59
2023-01-18T11:56:37.511Z,98062.88
2023-01-18T11:59:14.006Z,98057.78
2023-01-18T12:01:57.742Z,98061.84
2023-01-18T12:04:43.949Z,98069.16
2023-01-18T12:07:32.049Z,98063.69
2023-01-18T12:10:02.424Z,98070.63
2023-01-18T12:12:49.731Z,98064.72
2023-01-18T12:15:35.817Z,98069.41
2023-01-18T12:18:24.263Z,98071.66
2023-01-18T12:21:02.564Z,98076.97
2023-01-18T12:23:55.857Z,98080.84
2023-01-18T12:26:35.562Z,98080.44
2023-01-18T12:29:34.025Z,98086.56
2023-01-18T12:32:15.463Z,98087.75
2023-01-18T12:34:50.792Z,98090.63
2023-01-18T12:37:37.350Z,98093.69
2023-01-18T12:40:27.472Z,98089.00
2023-01-18T12:43:04.549Z,98092.25
2023-01-18T12:45:37.802Z,98094.50
2023-01-18T12:48:14.065Z,98085.13
2023-01-18T12:50:43.687Z,98095.53
2023-01-18T12:53:16.745Z,98096.13
2023-01-18T12:55:52.102Z,98103.88
2023-01-18T12:58:25.623Z,98107.13
2023-01-18T13:00:57.750Z,98107.53
2023-01-18T13:03:30.644Z,98104.66
2023-01-18T13:06:03.963Z,98122.03
2023-01-18T13:08:39.331Z,98122.06
2023-01-18T13:11:13.974Z,98113.47
2023-01-18T13:13:44.824Z,98108.38
2023-01-18T13:16:26.275Z,98120.44
2023-01-18T13:18:59.220Z,98132.69
2023-01-18T13:21:50.572Z,98126.13
2023-01-18T13:24:27.732Z,98138.81
2023-01-18T13:27:07.926Z,98129.41
2023-01-18T13:29:35.933Z,98136.16
2023-01-18T13:32:03.995Z,98136.13
2023-01-18T13:34:44.935Z,98131.66
2023-01-18T13:37:41.226Z,98141.06
2023-01-18T13:40:22.173Z,98158.22
2023-01-18T13:42:51.179Z,98152.28
2023-01-18T13:45:22.041Z,98161.06
2023-01-18T13:48:08.897Z,98161.06
2023-01-18T13:50:48.178Z,98165.16
2023-01-18T13:53:26.427Z,98165.16
2023-01-18T13:56:33.152Z,98166.16
2023-01-18T13:59:18.378Z,98164.09
2023-01-18T14:01:49.242Z,98177.56
2023-01-18T14:04:25.186Z,98182.44
2023-01-18T14:06:54.334Z,98189.34
2023-01-18T14:09:33.872Z,98183.59
2023-01-18T14:12:01.910Z,98198.31
2023-01-18T14:14:32.898Z,98189.50
2023-01-18T14:17:09.930Z,98203.38
2023-01-18T14:20:05.201Z,98206.78
2023-01-18T14:22:49.469Z,98205.16
2023-01-18T14:25:34.147Z,98214.34
2023-01-18T14:28:09.225Z,98222.84
2023-01-18T14:30:41.756Z,98227.75
2023-01-18T14:33:21.485Z,98232.41
2023-01-18T14:38:37.357Z,98248.03
2023-01-18T14:41:09.668Z,98244.09
2023-01-18T14:43:42.661Z,98258.41
2023-01-18T14:46:16.103Z,98258.00
2023-01-18T14:48:48.460Z,98263.28
2023-01-18T14:51:19.657Z,98266.66
2023-01-18T14:53:58.626Z,98271.13
2023-01-18T14:56:29.461Z,98279.84
2023-01-18T14:58:59.687Z,98276.13
2023-01-18T15:01:32.082Z,98288.44
2023-01-18T15:04:04.195Z,98287.75
2023-01-18T15:06:37.740Z,98286.69
2023-01-18T15:09:10.438Z,98294.38
2023-01-18T15:11:40.743Z,98298.53
2023-01-18T15:14:11.760Z,98310.84
2023-01-18T15:16:40.747Z,98319.06
2023-01-18T15:19:16.651Z,98327.03
2023-01-18T15:21:45.957Z,98325.91
2023-01-18T15:24:17.140Z,98335.31
2023-01-18T15:26:47.028Z,98327.56
2023-01-18T15:29:16.911Z,98341.34
2023-01-18T15:31:54.392Z,98351.06
2023-01-18T15:34:28.211Z,98348.97
2023-01-18T15:36:57.598Z,98347.44
2023-01-18T15:39:25.969Z,98354.56
2023-01-18T15:41:56.554Z,98353.06
2023-01-18T15:44:47.430Z,98368.31
2023-01-18T15:47:25.080Z,98369.63
2023-01-18T15:49:54.785Z,98366.59
2023-01-18T15:52:45.465Z,98377.09
2023-01-18T15:55:22.667Z,98385.91
2023-01-18T15:57:57.619Z,98385.13
2023-01-18T16:00:28.445Z,98383.13
2023-01-18T16:02:57.546Z,98389.97
2023-01-18T16:05:27.842Z,98397.38
2023-01-18T16:08:18.216Z,98410.72
2023-01-18T16:10:51.485Z,98421.50
2023-01-18T16:13:51.980Z,98420.13
2023-01-18T16:16:25.096Z,98424.47
2023-01-18T16:19:05.390Z,98422.66
2023-01-18T16:21:45.279Z,98431.44
2023-01-18T16:24:19.418Z,98437.94
2023-01-18T16:26:47.760Z,98444.75
2023-01-18T16:29:17.767Z,98445.13
2023-01-18T16:31:48.232Z,98460.66
2023-01-18T16:34:24.091Z,98465.94
2023-01-18T16:36:53.555Z,98462.84
2023-01-18T16:39:26.244Z,98465.84
2023-01-18T16:42:00.340Z,98489.66
2023-01-18T16:44:27.982Z,98490.81
2023-01-18T16:46:55.808Z,98494.94
2023-01-18T16:49:24.889Z,98489.28
2023-01-18T16:51:54.872Z,98494.09
2023-01-18T16:54:22.768Z,98496.66
2023-01-18T16:56:50.442Z,98499.81
2023-01-18T16:59:28.731Z,98506.31
2023-01-18T17:01:56.551Z,98518.53
2023-01-18T17:04:26.742Z,98512.59
2023-01-18T17:06:54.452Z,98518.16
2023-01-18T17:09:27.139Z,98518.06
2023-01-18T17:11:58.077Z,98523.25
2023-01-18T17:14:25.694Z,98541.38
2023-01-18T17:16:53.316Z,98540.66
2023-01-18T17:19:23.530Z,98542.31
2023-01-18T17:21:52.455Z,98537.91
2023-01-18T17:24:22.027Z,98544.19
2023-01-18T17:26:49.706Z,98549.72
2023-01-18T17:29:21.481Z,98547.56
2023-01-18T17:31:52.530Z,98549.50
2023-01-18T17:34:27.289Z,98548.88
2023-01-18T17:36:58.822Z,98556.84
2023-01-18T17:39:37.366Z,98564.53
2023-01-18T17:42:19.208Z,98570.63
2023-01-18T17:44:50.544Z,98571.72
2023-01-18T17:47:18.177Z,98573.13
2023-01-18T17:49:45.834Z,98586.03
2023-01-18T17:52:15.377Z,98587.03
2023-01-18T17:54:43.111Z,98594.16
2023-01-18T17:57:10.990Z,98598.03
2023-01-18T17:59:38.590Z,98600.25
2023-01-18T18:02:06.619Z,98600.38
2023-01-18T18:04:34.296Z,98608.97
2023-01-18T18:07:01.991Z,98618.97
2023-01-18T18:09:31.945Z,98622.06
2023-01-18T18:11:59.569Z,98630.63
2023-01-18T18:14:27.222Z,98631.25
2023-01-18T18:16:54.981Z,98628.44
2023-01-18T18:19:22.668Z,98636.59
2023-01-18T18:21:51.408Z,98639.88
2023-01-18T18:24:19.055Z,98643.00
2023-01-18T18:26:48.050Z,98645.44
2023-01-18T18:29:15.892Z,98655.38
2023-01-18T18:31:44.742Z,98648.97
2023-01-18T18:34:12.748Z,98654.09
2023-01-18T18:36:42.357Z,98654.94
2023-01-18T18:39:10.054Z,98663.38
2023-01-18T18:41:37.762Z,98661.88
2023-01-18T18:44:11.301Z,98660.59
2023-01-18T18:46:40.331Z,98668.97
2023-01-18T18:49:07.989Z,98666.13
2023-01-18T18:51:36.146Z,98694.53
2023-01-18T18:54:04.484Z,98696.22
2023-01-18T18:56:32.177Z,98694.59
2023-01-18T18:59:00.026Z,98688.88
2023-01-18T19:01:30.222Z,98691.50
2023-01-18T19:03:59.034Z,98685.34
2023-01-18T19:06:27.228Z,98680.28
2023-01-18T19:08:57.225Z,98683.38
2023-01-18T19:11:24.855Z,98692.28
2023-01-18T19:13:52.420Z,98697.44
2023-01-18T19:16:20.030Z,98702.72
2023-01-18T19:18:49.095Z,98695.66
2023-01-18T19:21:16.903Z,98701.91
2023-01-18T19:23:44.749Z,98699.09
2023-01-18T19:26:12.955Z,98695.97
2023-01-18T19:28:40.696Z,98699.13
2023-01-18T19:31:09.344Z,98707.69
2023-01-18T19:33:37.254Z,98707.69
2023-01-18T19:36:19.164Z,98721.53
2023-01-18T19:38:52.556Z,98710.34
2023-01-18T19:41:24.278Z,98720.56
2023-01-18T19:43:52.411Z,98719.72
2023-01-18T19:46:20.426Z,98717.78
2023-01-18T19:48:48.454Z,98721.53
2023-01-18T19:51:22.410Z,98720.41
2023-01-18T19:53:50.648Z,98728.81
2023-01-18T19:56:18.376Z,98725.50
2023-01-18T19:58:46.038Z,98736.38
2023-01-18T20:01:30.215Z,98737.72
2023-01-18T20:04:02.616Z,98756.00
2023-01-18T20:06:31.841Z,98757.66
2023-01-18T20:08:59.481Z,98762.25
2023-01-18T20:11:28.242Z,98765.69
2023-01-18T20:13:55.901Z,98770.31
2023-01-18T20:16:24.514Z,98762.56
2023-01-18T20:18:52.855Z,98768.81
2023-01-18T20:21:21.476Z,98774.25
2023-01-18T20:23:50.836Z,98779.84
2023-01-18T20:26:31.043Z,98779.38
2023-01-18T20:29:06.225Z,98786.91
2023-01-18T20:31:34.416Z,98789.72
2023-01-18T20:34:02.906Z,98791.16
2023-01-18T20:36:30.834Z,98777.34
2023-01-18T20:39:00.089Z,98792.84
2023-01-18T20:41:30.073Z,98795.31
2023-01-18T20:43:57.742Z,98801.88
2023-01-18T20:46:25.510Z,98807.97
2023-01-18T20:48:53.186Z,98813.84
2023-01-18T20:51:21.136Z,98816.19
2023-01-18T20:53:49.772Z,98822.63
2023-01-18T20:56:31.240Z,98827.72
2023-01-18T20:58:59.004Z,98826.56
2023-01-18T21:01:32.073Z,98834.81
2023-01-18T21:04:02.888Z,98823.78
2023-01-18T21:06:31.559Z,98834.97
2023-01-18T21:09:00.967Z,98841.91
2023-01-18T21:11:29.900Z,98842.38
2023-01-18T21:13:59.879Z,98844.03
2023-01-18T21:16:28.500Z,98844.03
2023-01-18T21:18:58.809Z,98852.56
2023-01-18T21:21:29.293Z,98855.84
2023-01-18T21:23:56.970Z,98857.88
2023-01-18T21:26:25.142Z,98863.19
2023-01-18T21:28:54.599Z,98873.22
2023-01-18T21:31:23.284Z,98871.91
2023-01-18T21:33:51.180Z,98876.34
2023-01-18T21:36:20.163Z,98869.44
2023-01-18T21:38:47.969Z,98874.38
2023-01-18T21:41:33.428Z,98875.16
2023-01-18T21:44:20.073Z,98878.13
2023-01-18T21:46:49.192Z,98871.78
2023-01-18T21:49:42.867Z,98877.56
2023-01-18T21:52:32.582Z,98875.50
2023-01-18T21:55:00.380Z,98876.91
2023-01-18T21:57:28.142Z,98882.78
2023-01-18T21:59:57.226Z,98887.28
2023-01-18T22:02:25.185Z,98892.63
2023-01-18T22:04:59.657Z,98894.38
2023-01-18T22:07:27.893Z,98895.41
2023-01-18T22:10:04.615Z,98906.44
2023-01-18T22:12:35.276Z,98896.56
2023-01-18T22:15:09.488Z,98907.91
2023-01-18T22:17:37.275Z,98905.22
2023-01-18T22:20:05.697Z,98920.00
2023-01-18T22:22:33.414Z,98913.91
2023-01-18T22:25:02.208Z,98919.53
2023-01-18T22:27:30.174Z,98921.03
2023-01-18T22:29:57.777Z,98922.34
2023-01-18T22:32:27.112Z,98925.47
2023-01-18T22:34:54.912Z,98927.72
2023-01-18T22:37:23.456Z,98937.25
2023-01-18T22:39:51.664Z,98934.34
2023-01-18T22:42:21.635Z,98940.72
2023-01-18T22:44:49.492Z,98950.91
2023-01-18T22:47:20.284Z,98946.69
2023-01-18T22:49:50.596Z,98947.09
2023-01-18T22:52:21.344Z,98949.09
2023-01-18T22:54:49.047Z,98952.19
2023-01-18T22:57:17.128Z,98954.19
2023-01-18T22:59:44.728Z,98940.13
2023-01-18T23:02:12.687Z,98953.78
2023-01-18T23:04:40.212Z,98953.94
2023-01-18T23:07:10.214Z,98958.66
2023-01-18T23:09:38.745Z,98958.38
2023-01-18T23:12:07.108Z,98950.63
2023-01-18T23:14:52.587Z,98961.16
2023-01-18T23:17:37.893Z,98960.41
2023-01-18T23:20:06.944Z,98967.44
2023-01-18T23:22:37.159Z,98957.53
2023-01-18T23:25:07.956Z,98962.34
2023-01-18T23:27:35.592Z,98961.50
2023-01-18T23:30:12.705Z,98960.84
2023-01-18T23:32:40.342Z,98965.66
2023-01-18T23:35:11.082Z,98971.97
2023-01-18T23:37:40.686Z,98972.28
2023-01-18T23:40:28.218Z,98973.72
2023-01-18T23:43:15.037Z,98969.50
2023-01-18T23:46:05.314Z,98987.31
2023-01-18T23:48:51.357Z,98982.94
2023-01-18T23:51:36.823Z,98990.22
2023-01-18T23:54:20.569Z,98997.38
2023-01-18T23:56:48.307Z,99000.16
2023-01-18T23:59:17.442Z,99001.09
